Time;durP1;ratioP1;P1;durP2;ratioP2;P2;SDS_P1;SDS_P2;PMS_P1;PMS_P2;Temp;Humidity;BMP_temperature;BMP_pressure;BME280_temperature;BME280_humidity;BME280_pressure;Samples;Min_cycle;Max_cycle;Signal;HPM_P1;HPM_P2
2022/09/03 00:02:26;;;;;;;;;;;17.10;58.40;;;;;;5046667;28;19920;-75
2022/09/03 00:04:59;;;;;;;;;;;17.00;58.30;;;;;;5050474;28;19909;-76
2022/09/03 00:07:30;;;;;;;;;;;17.00;57.70;;;;;;5050171;28;20043;-75
2022/09/03 00:10:00;;;;;;;;;;;16.90;58.20;;;;;;5049167;28;19912;-75
2022/09/03 00:12:32;;;;;;;;;;;16.90;59.10;;;;;;5047495;28;20441;-76
2022/09/03 00:15:02;;;;;;;;;;;16.80;58.90;;;;;;5048490;28;19917;-76
2022/09/03 00:17:48;;;;;;;;;;;16.80;59.30;;;;;;5041259;28;19920;-75
2022/09/03 00:20:20;;;;;;;;;;;16.90;59.10;;;;;;5047550;28;19934;-75
2022/09/03 00:22:47;;;;;;;;;;;16.80;58.30;;;;;;5047012;28;19924;-75
2022/09/03 00:25:16;;;;;;;;;;;16.70;58.60;;;;;;5041208;28;19928;-76
2022/09/03 00:27:42;;;;;;;;;;;16.70;58.30;;;;;;5041779;28;20005;-75
2022/09/03 00:30:10;;;;;;;;;;;16.60;59.00;;;;;;5044619;28;19919;-76
2022/09/03 00:32:38;;;;;;;;;;;16.60;59.00;;;;;;5050293;28;19916;-75
2022/09/03 00:35:05;;;;;;;;;;;16.60;59.40;;;;;;5036291;28;20428;-76
2022/09/03 00:37:31;;;;;;;;;;;16.60;59.50;;;;;;5051279;28;20003;-76
2022/09/03 00:39:56;;;;;;;;;;;16.60;58.40;;;;;;5047571;28;19917;-76
2022/09/03 00:42:25;;;;;;;;;;;16.60;59.50;;;;;;5050409;28;20304;-75
2022/09/03 00:45:06;;;;;;;;;;;16.60;58.20;;;;;;5044169;28;20006;-76
2022/09/03 00:47:46;;;;;;;;;;;16.60;57.90;;;;;;5048673;28;19924;-76
2022/09/03 00:50:12;;;;;;;;;;;16.50;58.90;;;;;;5035760;28;21044;-75
2022/09/03 00:52:38;;;;;;;;;;;16.40;59.00;;;;;;5041796;28;20027;-75
2022/09/03 00:55:22;;;;;;;;;;;16.40;59.60;;;;;;5049612;28;19913;-75
2022/09/03 00:57:57;;;;;;;;;;;16.40;59.60;;;;;;5044022;28;19920;-76
2022/09/03 01:00:23;;;;;;;;;;;16.40;59.10;;;;;;5039593;28;20397;-75
2022/09/03 01:03:07;;;;;;;;;;;16.30;59.80;;;;;;5035291;28;19953;-75
2022/09/03 01:05:42;;;;;;;;;;;16.30;60.00;;;;;;5038994;28;19918;-74
2022/09/03 01:08:07;;;;;;;;;;;16.30;59.90;;;;;;5037894;28;19921;-75
2022/09/03 01:10:37;;;;;;;;;;;16.30;60.40;;;;;;5037539;28;19919;-75
2022/09/03 01:13:08;;;;;;;;;;;16.30;59.90;;;;;;5037576;28;19913;-75
2022/09/03 01:15:47;;;;;;;;;;;16.30;59.80;;;;;;5038516;28;19921;-74
2022/09/03 01:18:20;;;;;;;;;;;16.30;59.30;;;;;;5035286;28;19924;-76
2022/09/03 01:20:52;;;;;;;;;;;16.20;59.70;;;;;;5046114;28;19916;-75
2022/09/03 01:23:34;;;;;;;;;;;16.20;60.20;;;;;;5045134;28;20317;-76
2022/09/03 01:26:00;;;;;;;;;;;16.20;59.50;;;;;;5051226;28;20222;-76
2022/09/03 01:28:31;;;;;;;;;;;16.10;59.80;;;;;;5037476;28;20356;-75
2022/09/03 01:31:02;;;;;;;;;;;16.20;59.80;;;;;;5046414;28;19999;-75
2022/09/03 01:33:37;;;;;;;;;;;16.20;59.90;;;;;;5039976;28;19912;-75
2022/09/03 01:36:11;;;;;;;;;;;16.20;59.80;;;;;;5042913;28;20356;-75
2022/09/03 01:38:40;;;;;;;;;;;16.10;59.80;;;;;;5041222;28;20405;-75
2022/09/03 01:44:02;;;;;;;;;;;16.20;60.10;;;;;;5037773;28;19915;-76
2022/09/03 01:46:32;;;;;;;;;;;16.30;57.70;;;;;;5042305;28;19928;-75
2022/09/03 01:49:05;;;;;;;;;;;16.30;58.70;;;;;;5045148;28;20293;-75
2022/09/03 01:51:31;;;;;;;;;;;16.30;59.00;;;;;;5047730;28;19923;-74
2022/09/03 01:54:15;;;;;;;;;;;16.20;59.60;;;;;;5040507;28;19912;-74
2022/09/03 01:56:40;;;;;;;;;;;16.10;59.60;;;;;;5057585;28;19959;-74
2022/09/03 01:59:26;;;;;;;;;;;16.20;58.50;;;;;;5046988;28;19916;-75
2022/09/03 02:01:55;;;;;;;;;;;16.20;59.00;;;;;;5044322;28;19913;-76
2022/09/03 02:04:25;;;;;;;;;;;16.30;57.20;;;;;;5045341;28;19966;-75
2022/09/03 02:06:52;;;;;;;;;;;16.30;57.30;;;;;;5041826;28;20389;-75
2022/09/03 02:09:17;;;;;;;;;;;16.40;57.20;;;;;;5038373;28;20577;-76
2022/09/03 02:11:45;;;;;;;;;;;16.40;57.30;;;;;;5044710;28;19921;-76
2022/09/03 02:14:11;;;;;;;;;;;16.40;58.30;;;;;;5047844;28;19913;-74
2022/09/03 02:16:37;;;;;;;;;;;16.50;57.60;;;;;;5038943;28;19921;-76
2022/09/03 02:19:14;;;;;;;;;;;16.50;57.40;;;;;;5038303;28;19921;-76
2022/09/03 02:21:45;;;;;;;;;;;16.40;58.10;;;;;;5045099;28;19912;-75
2022/09/03 02:24:11;;;;;;;;;;;16.40;58.50;;;;;;5052004;28;20294;-75
2022/09/03 02:26:36;;;;;;;;;;;16.30;58.80;;;;;;5036658;28;20047;-76
2022/09/03 02:29:02;;;;;;;;;;;16.30;58.40;;;;;;5049126;28;19935;-75
2022/09/03 02:31:28;;;;;;;;;;;16.40;57.90;;;;;;5043699;28;20550;-75
2022/09/03 02:33:54;;;;;;;;;;;16.20;58.40;;;;;;5040750;28;19927;-75
2022/09/03 02:36:24;;;;;;;;;;;16.10;59.20;;;;;;5040863;28;19916;-76
2022/09/03 02:38:49;;;;;;;;;;;16.10;59.10;;;;;;5036366;28;19925;-76
2022/09/03 02:41:15;;;;;;;;;;;16.10;59.60;;;;;;5040008;28;20215;-76
2022/09/03 02:43:43;;;;;;;;;;;16.10;59.90;;;;;;5041338;28;19913;-75
2022/09/03 02:46:11;;;;;;;;;;;16.10;59.20;;;;;;5045016;28;19919;-75
2022/09/03 02:48:37;;;;;;;;;;;16.10;59.70;;;;;;5048312;28;19916;-76
2022/09/03 02:51:02;;;;;;;;;;;16.00;60.40;;;;;;5043128;28;19924;-76
2022/09/03 02:53:28;;;;;;;;;;;16.00;60.30;;;;;;5041154;28;20494;-75
2022/09/03 02:55:57;;;;;;;;;;;16.00;60.90;;;;;;5042818;28;19955;-75
2022/09/03 02:58:23;;;;;;;;;;;16.00;59.50;;;;;;5043533;28;20143;-74
2022/09/03 03:00:48;;;;;;;;;;;16.00;59.90;;;;;;5040627;28;20320;-76
2022/09/03 03:03:13;;;;;;;;;;;15.90;59.80;;;;;;5044402;28;19924;-76
2022/09/03 03:05:42;;;;;;;;;;;15.90;60.50;;;;;;5047606;28;20259;-76
2022/09/03 03:08:08;;;;;;;;;;;15.80;60.40;;;;;;5039555;28;19954;-76
2022/09/03 03:10:34;;;;;;;;;;;15.80;60.30;;;;;;5050084;28;19913;-75
2022/09/03 03:12:59;;;;;;;;;;;15.80;60.70;;;;;;5043276;28;19948;-75
2022/09/03 03:15:26;;;;;;;;;;;15.70;60.60;;;;;;5037390;28;20309;-76
2022/09/03 03:17:54;;;;;;;;;;;15.70;60.20;;;;;;5040321;28;19964;-75
2022/09/03 03:20:19;;;;;;;;;;;15.70;61.20;;;;;;5039952;28;20305;-75
2022/09/03 03:22:45;;;;;;;;;;;15.70;60.20;;;;;;5038468;28;19921;-76
2022/09/03 03:25:10;;;;;;;;;;;15.70;61.30;;;;;;5032913;28;19913;-75
2022/09/03 03:27:38;;;;;;;;;;;15.70;61.20;;;;;;5037700;28;19921;-75
2022/09/03 03:30:04;;;;;;;;;;;15.60;61.30;;;;;;5036421;28;20045;-74
2022/09/03 03:32:29;;;;;;;;;;;15.70;61.10;;;;;;5041542;28;20488;-76
2022/09/03 03:34:55;;;;;;;;;;;15.60;61.40;;;;;;5041810;28;20296;-76
2022/09/03 03:37:20;;;;;;;;;;;15.60;61.60;;;;;;5039575;28;19916;-75
2022/09/03 03:39:46;;;;;;;;;;;15.60;61.60;;;;;;5035644;28;19975;-76
2022/09/03 03:42:13;;;;;;;;;;;15.60;61.30;;;;;;5036348;28;20409;-75
2022/09/03 03:44:38;;;;;;;;;;;15.50;61.40;;;;;;5041557;28;20007;-75
2022/09/03 03:47:04;;;;;;;;;;;15.50;61.90;;;;;;5033178;28;20000;-76
2022/09/03 03:49:30;;;;;;;;;;;15.50;61.50;;;;;;5041526;28;19909;-76
2022/09/03 03:51:55;;;;;;;;;;;15.50;62.00;;;;;;5039642;28;19925;-75
2022/09/03 03:54:21;;;;;;;;;;;15.50;62.10;;;;;;5037647;28;20377;-75
2022/09/03 03:56:47;;;;;;;;;;;15.50;61.70;;;;;;5033030;28;19990;-76
2022/09/03 03:59:12;;;;;;;;;;;15.50;62.10;;;;;;5034199;28;20231;-74
2022/09/03 04:01:38;;;;;;;;;;;15.50;60.50;;;;;;5033024;28;19923;-76
2022/09/03 04:04:04;;;;;;;;;;;15.40;61.30;;;;;;5038682;28;20012;-74
2022/09/03 04:06:29;;;;;;;;;;;15.50;62.50;;;;;;5040242;28;19913;-76
2022/09/03 04:08:55;;;;;;;;;;;15.40;61.90;;;;;;5033780;28;19913;-75
2022/09/03 04:11:21;;;;;;;;;;;15.30;62.00;;;;;;5045131;28;19913;-76
2022/09/03 04:13:47;;;;;;;;;;;15.30;61.60;;;;;;5047436;28;19912;-76
2022/09/03 04:16:14;;;;;;;;;;;15.40;61.60;;;;;;5046966;28;19921;-75
2022/09/03 04:18:40;;;;;;;;;;;15.30;61.70;;;;;;5041886;28;19942;-74
2022/09/03 04:21:13;;;;;;;;;;;15.40;61.20;;;;;;5045225;28;19913;-76
2022/09/03 04:23:40;;;;;;;;;;;15.40;61.50;;;;;;5041485;28;20419;-75
2022/09/03 04:26:06;;;;;;;;;;;15.50;61.30;;;;;;5042977;28;19912;-76
2022/09/03 04:28:32;;;;;;;;;;;15.50;60.70;;;;;;5043551;28;19972;-74
2022/09/03 04:31:04;;;;;;;;;;;15.50;61.00;;;;;;5047253;28;20389;-76
2022/09/03 04:33:30;;;;;;;;;;;15.50;60.00;;;;;;5049736;28;20445;-75
2022/09/03 04:36:12;;;;;;;;;;;15.50;60.10;;;;;;5048626;28;19920;-76
2022/09/03 04:38:39;;;;;;;;;;;15.40;61.20;;;;;;5050095;28;19921;-76
2022/09/03 04:41:05;;;;;;;;;;;15.30;61.10;;;;;;5038150;28;19912;-74
2022/09/03 04:43:30;;;;;;;;;;;15.40;60.10;;;;;;5044701;28;20292;-75
2022/09/03 04:46:00;;;;;;;;;;;15.60;59.50;;;;;;5042608;28;19913;-76
2022/09/03 04:48:26;;;;;;;;;;;15.40;60.30;;;;;;5036798;28;19912;-75
2022/09/03 04:50:51;;;;;;;;;;;15.20;60.90;;;;;;5055819;23;20300;-78
2022/09/03 04:53:17;;;;;;;;;;;15.20;61.30;;;;;;5028908;28;19913;-78
2022/09/03 04:55:42;;;;;;;;;;;15.10;61.90;;;;;;5029951;28;19917;-77
2022/09/03 04:58:08;;;;;;;;;;;15.20;61.00;;;;;;5029059;28;19974;-78
2022/09/03 05:00:34;;;;;;;;;;;15.20;60.80;;;;;;5037376;28;19988;-78
2022/09/03 05:03:00;;;;;;;;;;;15.20;60.60;;;;;;5034879;28;19921;-77
2022/09/03 05:05:25;;;;;;;;;;;15.30;60.50;;;;;;5034796;28;19964;-77
2022/09/03 05:07:52;;;;;;;;;;;15.20;60.80;;;;;;5027017;28;19924;-77
2022/09/03 05:10:21;;;;;;;;;;;15.30;60.60;;;;;;5030276;28;19913;-77
2022/09/03 05:12:47;;;;;;;;;;;15.30;61.00;;;;;;5023982;28;19922;-77
2022/09/03 05:15:13;;;;;;;;;;;15.40;60.50;;;;;;5026177;28;19931;-78
2022/09/03 05:17:38;;;;;;;;;;;15.30;60.60;;;;;;5028741;28;19921;-77
2022/09/03 05:20:06;;;;;;;;;;;15.30;60.60;;;;;;5024226;28;19921;-78
2022/09/03 05:22:32;;;;;;;;;;;15.30;61.20;;;;;;5028403;28;19956;-77
2022/09/03 05:24:58;;;;;;;;;;;15.30;61.10;;;;;;5046255;28;19998;-77
2022/09/03 05:27:23;;;;;;;;;;;15.30;61.70;;;;;;5025833;28;19917;-77
2022/09/03 05:29:49;;;;;;;;;;;15.40;60.60;;;;;;5030216;28;19960;-78
2022/09/03 05:32:16;;;;;;;;;;;15.40;60.60;;;;;;5021585;28;20020;-78
2022/09/03 05:34:42;;;;;;;;;;;15.40;60.90;;;;;;5029362;28;20406;-78
2022/09/03 05:37:07;;;;;;;;;;;15.40;61.00;;;;;;5041340;28;19913;-78
2022/09/03 05:39:33;;;;;;;;;;;15.40;61.10;;;;;;5031473;28;19932;-78
2022/09/03 05:41:58;;;;;;;;;;;15.40;61.70;;;;;;5027097;28;20004;-77
2022/09/03 05:44:24;;;;;;;;;;;15.40;61.00;;;;;;5030558;28;19917;-77
2022/09/03 05:46:50;;;;;;;;;;;15.30;61.30;;;;;;5028582;28;19924;-78
2022/09/03 05:49:16;;;;;;;;;;;15.20;61.60;;;;;;5029755;28;19913;-78
2022/09/03 05:51:42;;;;;;;;;;;15.20;62.20;;;;;;5026833;28;19994;-78
2022/09/03 05:54:08;;;;;;;;;;;15.10;63.00;;;;;;5030466;28;19914;-78
2022/09/03 05:56:34;;;;;;;;;;;15.20;63.00;;;;;;5027688;28;19920;-77
2022/09/03 05:59:04;;;;;;;;;;;15.40;63.40;;;;;;5027248;28;19936;-78
2022/09/03 06:01:37;;;;;;;;;;;15.40;62.50;;;;;;5043124;28;19917;-78
2022/09/03 06:04:10;;;;;;;;;;;15.40;62.30;;;;;;5025399;28;20540;-78
2022/09/03 06:06:37;;;;;;;;;;;15.40;62.80;;;;;;5027839;28;20368;-78
2022/09/03 06:09:04;;;;;;;;;;;15.70;61.30;;;;;;5025438;28;19920;-79
2022/09/03 06:11:31;;;;;;;;;;;15.60;61.30;;;;;;5028626;28;19928;-79
2022/09/03 06:13:59;;;;;;;;;;;15.50;61.10;;;;;;5041106;28;19920;-77
2022/09/03 06:16:24;;;;;;;;;;;15.60;61.50;;;;;;5029709;28;20016;-79
2022/09/03 06:18:50;;;;;;;;;;;15.70;61.30;;;;;;5026986;28;20019;-78
2022/09/03 06:21:15;;;;;;;;;;;15.80;61.20;;;;;;5030426;28;20441;-77
2022/09/03 06:23:41;;;;;;;;;;;15.80;61.50;;;;;;5027100;28;19939;-79
2022/09/03 06:26:08;;;;;;;;;;;15.80;61.40;;;;;;5034050;28;20402;-78
2022/09/03 06:28:36;;;;;;;;;;;15.80;62.40;;;;;;5027130;28;19917;-80
2022/09/03 06:31:03;;;;;;;;;;;15.80;61.40;;;;;;5024884;28;20305;-80
2022/09/03 06:33:29;;;;;;;;;;;16.00;60.80;;;;;;5026728;28;20265;-78
2022/09/03 06:35:56;;;;;;;;;;;16.00;61.80;;;;;;5032365;28;19920;-80
2022/09/03 06:38:23;;;;;;;;;;;15.90;61.10;;;;;;5026862;28;19921;-80
2022/09/03 06:40:55;;;;;;;;;;;16.00;61.40;;;;;;5033316;28;19921;-80
2022/09/03 06:43:22;;;;;;;;;;;16.00;61.70;;;;;;5030347;28;19913;-79
2022/09/03 06:45:53;;;;;;;;;;;16.10;61.70;;;;;;5031894;28;19913;-79
2022/09/03 06:48:19;;;;;;;;;;;16.10;60.40;;;;;;5032092;28;19913;-78
2022/09/03 06:50:52;;;;;;;;;;;16.30;60.30;;;;;;5033020;28;19928;-78
2022/09/03 06:53:17;;;;;;;;;;;16.40;60.40;;;;;;5031932;28;19913;-78
2022/09/03 06:55:44;;;;;;;;;;;16.50;59.40;;;;;;5049294;28;19921;-78
2022/09/03 06:58:10;;;;;;;;;;;16.60;59.60;;;;;;5032323;28;19919;-78
2022/09/03 07:00:35;;;;;;;;;;;16.70;59.30;;;;;;5027610;28;19916;-78
2022/09/03 07:03:01;;;;;;;;;;;16.70;59.80;;;;;;5034015;28;19940;-79
2022/09/03 07:05:27;;;;;;;;;;;16.70;59.20;;;;;;5037915;28;20004;-79
2022/09/03 07:07:53;;;;;;;;;;;16.70;59.20;;;;;;5033352;28;19956;-80
2022/09/03 07:10:20;;;;;;;;;;;16.70;59.80;;;;;;5048172;28;19944;-80
2022/09/03 07:12:46;;;;;;;;;;;16.70;59.30;;;;;;5033619;28;19917;-81
2022/09/03 07:15:11;;;;;;;;;;;16.90;58.50;;;;;;5031400;28;19983;-80
2022/09/03 07:17:37;;;;;;;;;;;16.90;59.10;;;;;;5047710;28;19921;-80
2022/09/03 07:20:02;;;;;;;;;;;17.00;59.10;;;;;;5027500;28;20046;-81
2022/09/03 07:22:29;;;;;;;;;;;17.00;59.30;;;;;;5027500;28;21290;-81
2022/09/03 07:24:55;;;;;;;;;;;17.10;59.20;;;;;;5045872;28;20004;-82
2022/09/03 07:27:20;;;;;;;;;;;17.10;58.40;;;;;;5043089;28;19964;-80
2022/09/03 07:29:46;;;;;;;;;;;17.20;58.80;;;;;;5043571;28;19952;-80
2022/09/03 07:32:11;;;;;;;;;;;17.20;57.90;;;;;;5045381;28;19916;-81
2022/09/03 07:34:36;;;;;;;;;;;17.30;58.30;;;;;;5029486;28;20371;-81
2022/09/03 07:37:04;;;;;;;;;;;17.40;58.50;;;;;;5030275;28;19919;-80
2022/09/03 07:39:29;;;;;;;;;;;17.50;58.20;;;;;;5028146;28;20000;-80
2022/09/03 07:41:57;;;;;;;;;;;17.50;58.60;;;;;;5048478;28;19959;-80
2022/09/03 07:44:23;;;;;;;;;;;17.60;58.10;;;;;;5047599;28;20395;-79
2022/09/03 07:46:49;;;;;;;;;;;17.70;58.50;;;;;;5032189;28;20321;-79
2022/09/03 07:49:14;;;;;;;;;;;18.10;56.10;;;;;;5031772;28;20414;-80
2022/09/03 07:51:40;;;;;;;;;;;18.00;57.80;;;;;;5046776;28;20010;-80
2022/09/03 07:54:08;;;;;;;;;;;18.00;57.30;;;;;;5031749;28;19913;-81
2022/09/03 07:56:34;;;;;;;;;;;18.00;56.40;;;;;;5032482;28;20020;-81
2022/09/03 07:59:00;;;;;;;;;;;18.10;57.10;;;;;;5028921;28;19998;-81
2022/09/03 08:01:27;;;;;;;;;;;18.10;56.60;;;;;;5042582;28;19914;-81
2022/09/03 08:03:53;;;;;;;;;;;18.20;56.80;;;;;;5046219;28;19980;-80
2022/09/03 08:06:20;;;;;;;;;;;18.30;56.60;;;;;;5029522;28;19927;-80
2022/09/03 08:08:46;;;;;;;;;;;18.80;55.10;;;;;;5030012;28;20379;-80
2022/09/03 08:11:12;;;;;;;;;;;18.60;55.90;;;;;;5030738;28;19955;-80
2022/09/03 08:13:39;;;;;;;;;;;18.80;55.60;;;;;;5032170;28;19945;-81
2022/09/03 08:16:05;;;;;;;;;;;19.00;54.40;;;;;;5035118;28;19959;-83
2022/09/03 08:18:37;;;;;;;;;;;19.10;53.80;;;;;;5031767;28;19935;-80
2022/09/03 08:21:14;;;;;;;;;;;19.00;55.00;;;;;;5042940;28;20391;-82
2022/09/03 08:23:40;;;;;;;;;;;19.10;54.30;;;;;;5031292;28;19931;-81
2022/09/03 08:26:06;;;;;;;;;;;19.10;54.70;;;;;;5050705;28;19993;-79
2022/09/03 08:28:35;;;;;;;;;;;19.10;55.20;;;;;;5029172;28;19965;-80
2022/09/03 08:31:04;;;;;;;;;;;19.40;54.30;;;;;;5033269;28;19913;-81
2022/09/03 08:33:36;;;;;;;;;;;19.50;53.80;;;;;;5047988;28;19913;-80
2022/09/03 08:36:05;;;;;;;;;;;19.50;54.00;;;;;;5034589;28;19913;-80
2022/09/03 08:38:34;;;;;;;;;;;19.90;53.30;;;;;;5033290;28;19919;-78
2022/09/03 08:41:04;;;;;;;;;;;19.80;53.20;;;;;;5022773;28;19914;-79
2022/09/03 08:43:31;;;;;;;;;;;19.80;53.40;;;;;;5026287;28;19917;-81
2022/09/03 08:45:58;;;;;;;;;;;20.10;53.10;;;;;;5024823;28;19914;-80
2022/09/03 08:48:25;;;;;;;;;;;20.20;52.90;;;;;;5042940;28;19952;-79
2022/09/03 08:50:54;;;;;;;;;;;20.50;51.90;;;;;;5022264;28;19917;-80
2022/09/03 08:53:40;;;;;;;;;;;20.60;52.10;;;;;;5029735;28;19923;-80
2022/09/03 08:56:35;;;;;;;;;;;20.60;52.40;;;;;;5024970;28;19909;-80
2022/09/03 08:59:01;;;;;;;;;;;20.50;51.80;;;;;;5026197;28;19920;-80
2022/09/03 09:01:45;;;;;;;;;;;20.50;52.30;;;;;;5045071;28;19936;-80
2022/09/03 09:04:10;;;;;;;;;;;20.50;51.70;;;;;;5028290;28;19990;-85
2022/09/03 09:06:41;;;;;;;;;;;20.50;52.70;;;;;;5032154;28;19956;-81
2022/09/03 09:09:26;;;;;;;;;;;20.50;52.20;;;;;;5028831;28;19909;-81
2022/09/03 09:12:10;;;;;;;;;;;20.50;52.10;;;;;;5029035;28;20360;-80
2022/09/03 09:14:44;;;;;;;;;;;20.50;52.50;;;;;;5032430;28;19917;-81
2022/09/03 09:17:18;;;;;;;;;;;20.70;50.80;;;;;;5048545;28;20391;-79
2022/09/03 09:19:44;;;;;;;;;;;20.60;51.50;;;;;;5028532;28;19920;-80
2022/09/03 09:22:13;;;;;;;;;;;20.60;52.40;;;;;;5049662;28;19913;-79
2022/09/03 09:24:43;;;;;;;;;;;20.70;51.30;;;;;;5034021;28;19913;-79
2022/09/03 09:27:11;;;;;;;;;;;20.70;50.70;;;;;;5033165;28;19914;-79
2022/09/03 09:29:38;;;;;;;;;;;20.80;50.70;;;;;;5033781;28;19913;-82
2022/09/03 09:32:06;;;;;;;;;;;20.90;50.50;;;;;;5034513;28;19921;-81
2022/09/03 09:34:35;;;;;;;;;;;21.00;49.60;;;;;;5029865;28;19945;-80
2022/09/03 09:37:03;;;;;;;;;;;21.10;50.00;;;;;;5032744;28;20300;-80
2022/09/03 09:39:28;;;;;;;;;;;21.10;50.90;;;;;;5034513;28;19948;-80
2022/09/03 09:42:04;;;;;;;;;;;21.20;50.10;;;;;;5033538;28;19949;-80
2022/09/03 09:44:30;;;;;;;;;;;21.30;49.20;;;;;;5033758;28;19913;-80
2022/09/03 09:47:07;;;;;;;;;;;21.50;48.90;;;;;;5050801;28;20004;-82
2022/09/03 09:49:35;;;;;;;;;;;21.50;48.10;;;;;;5036662;28;20391;-80
2022/09/03 09:52:10;;;;;;;;;;;21.60;48.30;;;;;;5033813;28;20023;-80
2022/09/03 09:54:36;;;;;;;;;;;21.80;48.50;;;;;;5051539;28;19920;-80
2022/09/03 09:57:04;;;;;;;;;;;21.80;48.90;;;;;;5027994;28;20008;-79
2022/09/03 09:59:30;;;;;;;;;;;21.80;48.10;;;;;;5031493;28;20019;-80
2022/09/03 10:02:05;;;;;;;;;;;21.90;47.80;;;;;;5050736;28;19957;-80
2022/09/03 10:04:31;;;;;;;;;;;21.90;47.30;;;;;;5043150;28;19952;-80
2022/09/03 10:07:04;;;;;;;;;;;22.10;47.60;;;;;;5034441;28;19920;-79
2022/09/03 10:09:30;;;;;;;;;;;22.00;48.00;;;;;;5035569;28;20415;-80
2022/09/03 10:12:18;;;;;;;;;;;22.00;49.10;;;;;;5032329;28;19920;-79
2022/09/03 10:14:58;;;;;;;;;;;22.10;48.90;;;;;;5026598;28;19963;-79
2022/09/03 10:17:50;;;;;;;;;;;22.30;48.40;;;;;;5049316;28;19924;-80
2022/09/03 10:20:30;;;;;;;;;;;22.40;48.80;;;;;;5029424;28;19967;-79
2022/09/03 10:23:10;;;;;;;;;;;22.40;49.00;;;;;;5034700;28;19924;-79
2022/09/03 10:25:59;;;;;;;;;;;22.50;48.80;;;;;;5047800;28;19917;-80
2022/09/03 10:28:26;;;;;;;;;;;22.50;48.70;;;;;;5048696;28;20022;-79
2022/09/03 10:30:59;;;;;;;;;;;22.50;47.60;;;;;;5038043;28;19913;-80
2022/09/03 10:33:29;;;;;;;;;;;22.50;47.80;;;;;;5038378;28;19917;-79
2022/09/03 10:36:02;;;;;;;;;;;22.50;47.90;;;;;;5035588;28;19913;-80
2022/09/03 10:38:32;;;;;;;;;;;22.50;49.00;;;;;;5031951;28;20287;-79
2022/09/03 10:41:18;;;;;;;;;;;22.60;48.50;;;;;;5035263;28;20225;-80
2022/09/03 10:43:57;;;;;;;;;;;22.70;47.80;;;;;;5050935;28;20395;-80
2022/09/03 10:46:26;;;;;;;;;;;23.00;47.20;;;;;;5034242;28;19913;-80
2022/09/03 10:49:01;;;;;;;;;;;23.10;47.20;;;;;;5032725;28;19921;-80
2022/09/03 10:51:30;;;;;;;;;;;23.00;45.80;;;;;;5034093;28;19917;-80
2022/09/03 10:54:14;;;;;;;;;;;22.90;46.50;;;;;;5051212;28;20291;-80
2022/09/03 10:56:53;;;;;;;;;;;23.00;46.50;;;;;;5034015;28;19909;-80
2022/09/03 10:59:26;;;;;;;;;;;23.00;46.90;;;;;;5029209;28;20455;-81
2022/09/03 11:01:52;;;;;;;;;;;23.00;46.80;;;;;;5045493;28;19924;-81
2022/09/03 11:04:43;;;;;;;;;;;23.10;46.80;;;;;;5047453;28;19917;-82
2022/09/03 11:07:11;;;;;;;;;;;23.10;46.90;;;;;;5042912;28;19913;-81
2022/09/03 11:09:56;;;;;;;;;;;23.00;46.40;;;;;;5027802;28;19921;-81
2022/09/03 11:12:30;;;;;;;;;;;23.10;46.20;;;;;;5033096;28;20367;-82
2022/09/03 11:15:14;;;;;;;;;;;23.00;47.00;;;;;;5033283;28;20007;-82
2022/09/03 11:17:45;;;;;;;;;;;23.10;46.40;;;;;;5024797;28;19916;-82
2022/09/03 11:20:17;;;;;;;;;;;23.40;46.00;;;;;;5031534;28;19944;-82
2022/09/03 11:22:44;;;;;;;;;;;23.70;45.50;;;;;;5039402;28;19913;-81
2022/09/03 11:25:11;;;;;;;;;;;23.80;44.80;;;;;;5024679;28;19967;-82
2022/09/03 11:27:40;;;;;;;;;;;24.00;44.50;;;;;;5029626;28;20434;-82
2022/09/03 11:30:09;;;;;;;;;;;24.10;44.60;;;;;;5046976;28;19917;-82
2022/09/03 11:32:42;;;;;;;;;;;24.00;45.00;;;;;;5045717;28;19921;-81
2022/09/03 11:35:28;;;;;;;;;;;24.00;44.70;;;;;;5029496;28;19996;-81
2022/09/03 11:37:58;;;;;;;;;;;24.00;46.70;;;;;;5041477;28;19917;-81
2022/09/03 11:40:28;;;;;;;;;;;24.00;46.50;;;;;;5031855;28;19920;-81
2022/09/03 11:43:03;;;;;;;;;;;24.10;45.80;;;;;;5032957;28;20015;-81
2022/09/03 11:45:30;;;;;;;;;;;24.40;45.00;;;;;;5047626;28;19963;-81
2022/09/03 11:47:55;;;;;;;;;;;24.10;44.30;;;;;;5046899;28;20284;-81
2022/09/03 11:50:24;;;;;;;;;;;24.10;45.00;;;;;;5029539;28;19913;-80
2022/09/03 11:52:55;;;;;;;;;;;24.20;44.30;;;;;;5029981;28;20338;-81
2022/09/03 11:55:32;;;;;;;;;;;24.40;43.60;;;;;;5026224;28;19913;-80
2022/09/03 11:58:09;;;;;;;;;;;24.30;43.90;;;;;;5026131;28;19936;-83
2022/09/03 12:00:44;;;;;;;;;;;24.10;44.50;;;;;;5043451;28;19925;-79
2022/09/03 12:03:13;;;;;;;;;;;24.20;44.50;;;;;;5024015;28;19913;-81
2022/09/03 12:05:45;;;;;;;;;;;24.50;45.90;;;;;;5025730;28;20021;-79
2022/09/03 12:08:10;;;;;;;;;;;24.50;45.40;;;;;;5023212;28;19921;-78
2022/09/03 12:10:45;;;;;;;;;;;24.50;45.80;;;;;;5029968;28;19921;-78
2022/09/03 12:13:13;;;;;;;;;;;24.60;44.30;;;;;;5030494;28;19983;-78
2022/09/03 12:15:54;;;;;;;;;;;24.60;44.40;;;;;;5032776;28;20047;-79
2022/09/03 12:18:19;;;;;;;;;;;24.70;43.60;;;;;;5032794;28;19976;-79
2022/09/03 12:20:46;;;;;;;;;;;25.10;43.50;;;;;;5052348;28;20003;-78
2022/09/03 12:23:13;;;;;;;;;;;25.00;43.20;;;;;;5052128;28;19914;-79
2022/09/03 12:25:46;;;;;;;;;;;25.10;42.30;;;;;;5037996;28;19970;-79
2022/09/03 12:28:15;;;;;;;;;;;25.10;43.20;;;;;;5035825;28;19913;-79
2022/09/03 12:30:41;;;;;;;;;;;25.10;42.70;;;;;;5045105;28;19959;-79
2022/09/03 12:33:07;;;;;;;;;;;25.00;43.00;;;;;;5033820;28;19913;-79
2022/09/03 12:35:32;;;;;;;;;;;25.00;43.60;;;;;;5058052;28;19916;-79
2022/09/03 12:37:58;;;;;;;;;;;24.90;43.40;;;;;;5041384;28;19909;-79
2022/09/03 12:40:25;;;;;;;;;;;24.90;43.80;;;;;;5056401;28;19928;-79
2022/09/03 12:42:51;;;;;;;;;;;24.90;44.00;;;;;;5040757;28;19924;-79
2022/09/03 12:45:23;;;;;;;;;;;25.10;43.70;;;;;;5038388;28;19917;-78
2022/09/03 12:47:49;;;;;;;;;;;25.10;44.00;;;;;;5047888;28;19919;-79
2022/09/03 12:50:18;;;;;;;;;;;25.00;43.70;;;;;;5038073;28;20011;-78
2022/09/03 12:52:49;;;;;;;;;;;25.00;44.20;;;;;;5055561;28;20236;-79
2022/09/03 12:55:35;;;;;;;;;;;25.10;44.00;;;;;;5056911;28;19924;-79
2022/09/03 12:58:06;;;;;;;;;;;25.10;44.00;;;;;;5038397;28;20007;-79
2022/09/03 13:00:33;;;;;;;;;;;25.00;44.30;;;;;;5054725;28;19925;-78
2022/09/03 13:03:05;;;;;;;;;;;24.80;44.50;;;;;;5037725;28;19916;-79
2022/09/03 13:05:30;;;;;;;;;;;24.60;45.50;;;;;;5040870;28;19909;-79
2022/09/03 13:07:58;;;;;;;;;;;24.70;45.30;;;;;;5055904;28;19909;-79
2022/09/03 13:10:25;;;;;;;;;;;24.70;45.50;;;;;;5038473;28;19924;-79
2022/09/03 13:12:51;;;;;;;;;;;24.70;46.00;;;;;;5039330;28;19920;-78
2022/09/03 13:15:18;;;;;;;;;;;24.60;46.50;;;;;;5038505;28;19913;-79
2022/09/03 13:17:46;;;;;;;;;;;24.80;45.80;;;;;;5039802;28;20008;-78
2022/09/03 13:20:32;;;;;;;;;;;24.80;45.90;;;;;;5038994;28;20335;-79
2022/09/03 13:23:08;;;;;;;;;;;24.90;46.00;;;;;;5051728;28;19913;-79
2022/09/03 13:25:36;;;;;;;;;;;25.20;45.60;;;;;;5039386;28;19936;-79
2022/09/03 13:28:08;;;;;;;;;;;25.30;43.80;;;;;;5038275;28;20339;-79
2022/09/03 13:30:42;;;;;;;;;;;25.30;45.40;;;;;;5038525;28;19909;-79
2022/09/03 13:33:07;;;;;;;;;;;25.20;45.40;;;;;;5046310;28;19924;-78
2022/09/03 13:35:43;;;;;;;;;;;25.40;45.90;;;;;;5036370;28;19913;-79
2022/09/03 13:38:24;;;;;;;;;;;25.40;45.50;;;;;;5036793;28;19936;-79
2022/09/03 13:40:58;;;;;;;;;;;25.40;45.80;;;;;;5029764;28;20063;-79
2022/09/03 13:43:31;;;;;;;;;;;25.30;45.90;;;;;;5036427;28;19962;-79
2022/09/03 13:46:00;;;;;;;;;;;25.50;45.60;;;;;;5037642;28;19919;-79
2022/09/03 13:51:24;;;;;;;;;;;25.30;46.30;;;;;;5033447;28;19924;-79
2022/09/03 13:54:08;;;;;;;;;;;25.30;46.30;;;;;;5037940;28;19913;-79
2022/09/03 13:56:41;;;;;;;;;;;25.40;45.40;;;;;;5038606;28;19924;-80
2022/09/03 13:59:13;;;;;;;;;;;25.50;46.10;;;;;;5039271;28;20356;-79
2022/09/03 14:01:42;;;;;;;;;;;25.50;45.50;;;;;;5037389;28;19952;-79
2022/09/03 14:04:13;;;;;;;;;;;25.50;47.30;;;;;;5036939;28;20360;-79
2022/09/03 14:06:45;;;;;;;;;;;25.30;46.80;;;;;;5036808;28;20498;-78
2022/09/03 14:09:17;;;;;;;;;;;25.20;47.10;;;;;;5035856;28;19909;-79
2022/09/03 14:11:53;;;;;;;;;;;25.30;47.10;;;;;;5036044;28;20244;-79
2022/09/03 14:14:37;;;;;;;;;;;25.40;47.10;;;;;;5037147;28;19910;-79
2022/09/03 14:17:09;;;;;;;;;;;25.40;47.30;;;;;;5050111;28;19914;-79
2022/09/03 14:19:38;;;;;;;;;;;25.60;47.00;;;;;;5036019;28;19932;-79
2022/09/03 14:22:07;;;;;;;;;;;25.50;46.80;;;;;;5032796;28;19923;-79
2022/09/03 14:24:40;;;;;;;;;;;25.60;46.50;;;;;;5031180;28;19944;-78
2022/09/03 14:27:06;;;;;;;;;;;25.90;45.60;;;;;;5035346;28;20004;-78
2022/09/03 14:29:32;;;;;;;;;;;25.90;45.60;;;;;;5031866;28;20035;-79
2022/09/03 14:32:01;;;;;;;;;;;25.90;45.30;;;;;;5031632;28;19918;-79
2022/09/03 14:34:29;;;;;;;;;;;25.80;46.00;;;;;;5033165;28;19909;-79
2022/09/03 14:37:00;;;;;;;;;;;25.60;46.60;;;;;;5033205;28;20364;-79